Nisland, South Dakota
Current Conditions -  °F | °C
As of 9:15 AM on Tuesday 21 Oct 2014 (Local Time) from KSPF Reporting Station
Clear Clear  
Wind Chill: 70°   Ceiling: Unl
Heat Index: 70°   Visibility: 10mi
Dew Point: 39°   Wind: 13mph
Humidity: 33%   Direction: 210°SSW
Pressure: 29.84"   Gusts: 18mph
Location:  44.67°N, 103.55°W
Report Text: KSPF 211515Z AUTO 21011G16KT 030V040 10SM CLR 21/04 A2984 RMK AO2
Loading
Personal Weather Stations






























Interactive Weather Map
Tropical Storm Tracking
New forecast layout! Learn more

10-Day Weather Forecast

Advertisements
Track Severe Weather on mobile